Time;durP1;ratioP1;P1;durP2;ratioP2;P2;SDS_P1;SDS_P2;PMS_P1;PMS_P2;Temp;Humidity;BMP_temperature;BMP_pressure;BME280_temperature;BME280_humidity;BME280_pressure;Samples;Min_cycle;Max_cycle;Signal;HPM_P1;HPM_P2
2022/11/02 00:00:17;;;;;;;;;;;;;;;11.71;100.00;100499.28;5007278;28;19991;-75
2022/11/02 00:02:43;;;;;;;;;;;;;;;11.72;100.00;100500.91;5006766;28;20366;-73
2022/11/02 00:05:12;;;;;;;;;;;;;;;11.74;100.00;100506.97;5004689;28;19917;-74
2022/11/02 00:07:38;;;;;;;;;;;;;;;11.74;100.00;100511.41;5002480;28;20370;-74
2022/11/02 00:10:03;;;;;;;;;;;;;;;11.73;100.00;100502.63;5003360;28;20059;-74
2022/11/02 00:12:28;;;;;;;;;;;;;;;11.73;100.00;100501.75;5003547;28;19925;-75
2022/11/02 00:14:54;;;;;;;;;;;;;;;11.72;100.00;100503.56;5002222;28;20267;-75
2022/11/02 00:17:19;;;;;;;;;;;;;;;11.73;100.00;100489.41;5004494;28;20298;-75
2022/11/02 00:19:44;;;;;;;;;;;;;;;11.74;100.00;100485.81;5001603;28;19918;-75
2022/11/02 00:22:10;;;;;;;;;;;;;;;11.74;100.00;100485.81;5004088;28;19957;-75
2022/11/02 00:24:35;;;;;;;;;;;;;;;11.74;100.00;100483.16;5001069;28;19921;-76
2022/11/02 00:27:01;;;;;;;;;;;;;;;11.74;100.00;100491.09;5002803;28;20348;-75
2022/11/02 00:29:26;;;;;;;;;;;;;;;11.77;100.00;100485.56;5002337;28;20321;-74
2022/11/02 00:31:52;;;;;;;;;;;;;;;11.81;100.00;100484.34;5008831;28;20270;-74
2022/11/02 00:34:17;;;;;;;;;;;;;;;11.85;100.00;100485.75;5004196;28;20062;-74
2022/11/02 00:36:43;;;;;;;;;;;;;;;11.86;100.00;100495.38;5000351;28;19917;-74
2022/11/02 00:39:08;;;;;;;;;;;;;;;11.88;100.00;100488.16;5003253;28;20286;-74
2022/11/02 00:41:33;;;;;;;;;;;;;;;11.90;100.00;100491.50;5000954;28;20106;-73
2022/11/02 00:43:59;;;;;;;;;;;;;;;11.93;100.00;100489.56;5001119;28;19924;-74
2022/11/02 00:46:24;;;;;;;;;;;;;;;11.92;100.00;100493.19;5003570;28;19964;-74
2022/11/02 00:48:49;;;;;;;;;;;;;;;11.81;100.00;100496.72;4999521;28;20306;-75
2022/11/02 00:51:16;;;;;;;;;;;;;;;11.76;100.00;100499.75;5003001;28;20008;-74
2022/11/02 00:53:41;;;;;;;;;;;;;;;11.71;100.00;100501.91;4999908;28;19997;-76
2022/11/02 00:56:07;;;;;;;;;;;;;;;11.56;100.00;100508.44;5001728;28;19949;-75
2022/11/02 00:58:33;;;;;;;;;;;;;;;11.58;100.00;100500.41;5000829;28;19957;-75
2022/11/02 01:01:02;;;;;;;;;;;;;;;11.54;100.00;100498.97;5004836;28;20416;-75
2022/11/02 01:03:28;;;;;;;;;;;;;;;11.37;100.00;100497.69;5001291;28;19921;-75
2022/11/02 01:05:53;;;;;;;;;;;;;;;11.40;100.00;100502.75;5001341;28;19918;-75
2022/11/02 01:08:19;;;;;;;;;;;;;;;11.43;100.00;100498.03;5003462;28;20393;-73
2022/11/02 01:10:44;;;;;;;;;;;;;;;11.52;100.00;100495.63;4999990;28;19933;-75
2022/11/02 01:13:09;;;;;;;;;;;;;;;11.63;100.00;100498.22;5002633;28;20301;-75
2022/11/02 01:15:37;;;;;;;;;;;;;;;11.67;100.00;100500.47;4999455;28;19971;-75
2022/11/02 01:18:04;;;;;;;;;;;;;;;11.65;100.00;100499.78;5001755;28;19921;-74
2022/11/02 01:20:30;;;;;;;;;;;;;;;11.66;100.00;100498.81;5001843;28;19924;-76
2022/11/02 01:22:56;;;;;;;;;;;;;;;11.70;100.00;100497.59;5000803;28;19918;-75
2022/11/02 01:25:22;;;;;;;;;;;;;;;11.76;100.00;100494.47;5002999;28;20290;-75
2022/11/02 01:27:47;;;;;;;;;;;;;;;11.81;100.00;100484.34;4999905;28;19928;-75
2022/11/02 01:30:12;;;;;;;;;;;;;;;11.84;100.00;100481.44;5003564;28;19929;-74
2022/11/02 01:32:38;;;;;;;;;;;;;;;11.86;100.00;100479.50;5005630;28;19928;-75
2022/11/02 01:35:03;;;;;;;;;;;;;;;11.86;100.00;100478.66;5001542;28;20275;-75
2022/11/02 01:37:29;;;;;;;;;;;;;;;11.85;100.00;100477.81;4984600;28;20012;-75
2022/11/02 01:39:54;;;;;;;;;;;;;;;11.85;100.00;100467.25;5000612;28;20037;-75
2022/11/02 01:42:21;;;;;;;;;;;;;;;11.80;100.00;100472.09;5003052;28;20378;-74
2022/11/02 01:44:47;;;;;;;;;;;;;;;11.81;100.00;100460.53;5003306;28;19917;-74
2022/11/02 01:47:16;;;;;;;;;;;;;;;11.82;100.00;100456.09;4999033;28;19937;-75
2022/11/02 01:49:44;;;;;;;;;;;;;;;11.80;100.00;100448.28;5008191;28;19928;-74
2022/11/02 01:52:15;;;;;;;;;;;;;;;11.73;100.00;100447.13;5000916;28;19924;-75
2022/11/02 01:54:52;;;;;;;;;;;;;;;11.70;100.00;100439.41;5002789;28;19964;-75
2022/11/02 01:57:19;;;;;;;;;;;;;;;11.65;100.00;100441.63;4997894;28;19924;-74
2022/11/02 01:59:54;;;;;;;;;;;;;;;11.61;100.00;100442.81;5014957;28;20370;-74
2022/11/02 02:02:21;;;;;;;;;;;;;;;11.60;100.00;100437.69;5000012;28;20362;-75
2022/11/02 02:04:48;;;;;;;;;;;;;;;11.63;100.00;100440.06;5003283;28;19921;-73
2022/11/02 02:07:14;;;;;;;;;;;;;;;11.64;100.00;100434.66;5017936;28;20408;-75
2022/11/02 02:09:40;;;;;;;;;;;;;;;11.67;100.00;100431.72;5003229;28;20011;-75
2022/11/02 02:12:06;;;;;;;;;;;;;;;11.66;100.00;100440.66;5001498;28;19980;-75
2022/11/02 02:14:32;;;;;;;;;;;;;;;11.68;100.00;100443.16;5002048;28;20340;-75
2022/11/02 02:16:57;;;;;;;;;;;;;;;11.73;100.00;100447.13;5001933;28;19918;-75
2022/11/02 02:19:26;;;;;;;;;;;;;;;11.79;100.00;100446.59;5001020;28;19975;-75
2022/11/02 02:22:15;;;;;;;;;;;;;;;11.84;100.00;100444.41;5007492;28;19940;-74
2022/11/02 02:24:44;;;;;;;;;;;;;;;11.92;100.00;100440.28;4982945;28;19925;-74
2022/11/02 02:27:17;;;;;;;;;;;;;;;11.94;100.00;100438.34;4998876;28;20429;-75
2022/11/02 02:29:43;;;;;;;;;;;;;;;11.89;100.00;100441.41;5003056;28;19921;-75
2022/11/02 02:32:11;;;;;;;;;;;;;;;11.75;100.00;100442.53;5002961;28;19972;-74
2022/11/02 02:34:42;;;;;;;;;;;;;;;11.86;100.00;100446.94;5000061;28;19953;-75
2022/11/02 02:37:14;;;;;;;;;;;;;;;11.89;100.00;100439.59;5000301;28;19918;-74
2022/11/02 02:40:07;;;;;;;;;;;;;;;11.80;100.00;100442.16;4998600;28;20016;-74
2022/11/02 02:42:53;;;;;;;;;;;;;;;11.79;100.00;100436.03;4998189;28;20007;-75
2022/11/02 02:45:30;;;;;;;;;;;;;;;11.82;100.00;100441.06;4998782;28;19924;-74
2022/11/02 02:48:05;;;;;;;;;;;;;;;11.88;100.00;100439.72;5004539;28;19914;-73
2022/11/02 02:50:36;;;;;;;;;;;;;;;11.94;100.00;100428.63;5002867;28;20258;-74
2022/11/02 02:53:03;;;;;;;;;;;;;;;11.96;100.00;100439.06;5003916;28;19913;-74
2022/11/02 02:55:31;;;;;;;;;;;;;;;12.00;100.00;100429.91;5010111;28;19924;-75
2022/11/02 02:57:59;;;;;;;;;;;;;;;12.01;100.00;100428.94;5004355;28;19913;-73
2022/11/02 03:00:25;;;;;;;;;;;;;;;12.00;100.00;100433.38;5002836;28;19918;-73
2022/11/02 03:03:02;;;;;;;;;;;;;;;11.92;100.00;100435.84;5006326;28;19971;-74
2022/11/02 03:05:30;;;;;;;;;;;;;;;11.79;100.00;100436.03;5003582;28;20275;-74
2022/11/02 03:07:58;;;;;;;;;;;;;;;11.67;100.00;100437.03;5012299;28;19924;-74
2022/11/02 03:10:30;;;;;;;;;;;;;;;11.74;100.00;100438.22;5003751;28;20407;-74
2022/11/02 03:12:55;;;;;;;;;;;;;;;11.78;100.00;100439.63;5006255;28;19922;-75
2022/11/02 03:15:42;;;;;;;;;;;;;;;11.78;100.00;100439.63;5004098;28;19925;-73
2022/11/02 03:18:08;;;;;;;;;;;;;;;11.82;100.00;100430.50;5004818;28;19924;-74
2022/11/02 03:20:42;;;;;;;;;;;;;;;11.84;100.00;100432.97;5002517;28;20433;-74
2022/11/02 03:23:20;;;;;;;;;;;;;;;11.80;100.00;100437.72;5005014;28;20452;-74
2022/11/02 03:25:51;;;;;;;;;;;;;;;11.77;100.00;100437.97;5021417;28;19999;-75
2022/11/02 03:28:29;;;;;;;;;;;;;;;11.76;100.00;100438.94;5004667;28;19924;-74
2022/11/02 03:31:02;;;;;;;;;;;;;;;11.77;100.00;100439.78;5004610;28;19914;-75
2022/11/02 03:33:34;;;;;;;;;;;;;;;11.71;100.00;100438.47;5004008;28;19922;-74
2022/11/02 03:36:07;;;;;;;;;;;;;;;11.74;100.00;100438.22;5003188;28;19913;-74
2022/11/02 03:38:40;;;;;;;;;;;;;;;11.70;100.00;100439.41;5002320;28;19932;-74
2022/11/02 03:41:06;;;;;;;;;;;;;;;11.61;100.00;100439.34;4986129;28;20003;-75
2022/11/02 03:43:34;;;;;;;;;;;;;;;11.59;100.00;100444.78;5009106;28;20337;-75
2022/11/02 03:46:01;;;;;;;;;;;;;;;11.70;100.00;100439.41;5002870;28;20025;-75
2022/11/02 03:48:31;;;;;;;;;;;;;;;11.74;100.00;100437.38;5001194;28;20290;-75
2022/11/02 03:50:59;;;;;;;;;;;;;;;11.81;100.00;100442.03;5003387;28;19971;-74
2022/11/02 03:53:29;;;;;;;;;;;;;;;11.87;100.00;100438.88;5006383;28;19918;-74
2022/11/02 03:55:58;;;;;;;;;;;;;;;11.91;100.00;100442.09;5008878;28;19917;-75
2022/11/02 03:58:23;;;;;;;;;;;;;;;11.97;100.00;100432.78;5007178;28;19991;-76
2022/11/02 04:00:51;;;;;;;;;;;;;;;11.94;100.00;100444.47;5007503;28;20378;-74
2022/11/02 04:03:18;;;;;;;;;;;;;;;11.88;100.00;100445.84;5004893;28;19932;-75
2022/11/02 04:05:43;;;;;;;;;;;;;;;11.94;100.00;100449.78;5006163;28;19922;-76
2022/11/02 04:08:19;;;;;;;;;;;;;;;12.00;100.00;100453.72;5004408;28;20345;-73
2022/11/02 04:16:16;;;;;;;;;;;;;;;12.09;100.00;100447.63;5015408;28;19925;-75
2022/11/02 04:21:27;;;;;;;;;;;;;;;12.06;100.00;100458.47;5019929;28;19964;-75
2022/11/02 04:26:36;;;;;;;;;;;;;;;12.00;100.00;100454.53;5007500;28;19917;-75
2022/11/02 04:29:02;;;;;;;;;;;;;;;11.98;100.00;100450.34;5004660;28;19917;-74
2022/11/02 04:31:28;;;;;;;;;;;;;;;11.99;100.00;100463.44;5018037;28;20437;-75
2022/11/02 04:33:54;;;;;;;;;;;;;;;11.95;100.00;100456.75;5001493;28;19927;-76
2022/11/02 04:36:20;;;;;;;;;;;;;;;12.01;100.00;100465.97;5006605;28;19921;-75
2022/11/02 04:38:51;;;;;;;;;;;;;;;12.03;100.00;100464.84;5007866;28;19924;-76
2022/11/02 04:41:42;;;;;;;;;;;;;;;12.08;100.00;100462.66;5005343;28;20270;-76
2022/11/02 04:44:24;;;;;;;;;;;;;;;12.11;100.00;100464.22;5005108;28;19963;-74
2022/11/02 04:46:57;;;;;;;;;;;;;;;12.13;100.00;100459.63;5005740;28;20447;-75
2022/11/02 04:49:25;;;;;;;;;;;;;;;12.09;100.00;100456.41;5003475;28;19917;-75
2022/11/02 04:51:52;;;;;;;;;;;;;;;12.07;100.00;100461.00;5006494;28;19917;-75
2022/11/02 04:54:18;;;;;;;;;;;;;;;12.08;100.00;100464.47;5003177;28;19917;-75
2022/11/02 04:56:45;;;;;;;;;;;;;;;12.07;100.00;100458.34;5007174;28;19917;-75
2022/11/02 04:59:11;;;;;;;;;;;;;;;12.07;100.00;100462.81;5002597;28;20289;-75
2022/11/02 05:01:37;;;;;;;;;;;;;;;12.06;100.00;100469.06;5004771;28;20040;-75
2022/11/02 05:04:04;;;;;;;;;;;;;;;12.05;100.00;100468.22;5024907;28;19945;-75
2022/11/02 05:06:31;;;;;;;;;;;;;;;12.05;100.00;100472.66;5002758;28;20266;-76
2022/11/02 05:08:57;;;;;;;;;;;;;;;12.03;100.00;100470.16;5006969;28;19921;-76
2022/11/02 05:11:23;;;;;;;;;;;;;;;12.04;100.00;100471.81;5002502;28;19932;-76
2022/11/02 05:13:49;;;;;;;;;;;;;;;12.06;100.00;100471.72;5006260;28;20324;-75
2022/11/02 05:16:16;;;;;;;;;;;;;;;12.05;100.00;100468.22;5002788;28;19917;-75
2022/11/02 05:18:42;;;;;;;;;;;;;;;12.04;100.00;100470.97;4988580;28;19980;-76
2022/11/02 05:21:09;;;;;;;;;;;;;;;12.05;100.00;100472.66;5005694;28;20380;-75
2022/11/02 05:23:34;;;;;;;;;;;;;;;12.07;100.00;100476.88;5003139;28;19914;-75
2022/11/02 05:26:02;;;;;;;;;;;;;;;12.08;100.00;100473.22;5024939;28;19924;-76
2022/11/02 05:28:29;;;;;;;;;;;;;;;12.11;100.00;100469.50;5007887;28;20386;-75
2022/11/02 05:30:57;;;;;;;;;;;;;;;12.11;100.00;100472.16;5003349;28;19967;-74
2022/11/02 05:33:22;;;;;;;;;;;;;;;12.12;100.00;100476.47;5001870;28;20371;-75
2022/11/02 05:35:48;;;;;;;;;;;;;;;12.12;100.00;100473.84;5005693;28;19979;-75
2022/11/02 05:38:13;;;;;;;;;;;;;;;12.14;100.00;100477.16;4988434;28;19924;-74
2022/11/02 05:40:42;;;;;;;;;;;;;;;12.14;100.00;100478.00;5002611;28;20334;-73
2022/11/02 05:43:09;;;;;;;;;;;;;;;12.14;100.00;100487.75;5017943;28;19924;-74
2022/11/02 05:45:35;;;;;;;;;;;;;;;12.13;100.00;100481.66;5020531;28;20439;-75
2022/11/02 05:48:02;;;;;;;;;;;;;;;12.15;100.00;100489.44;5007371;28;20337;-75
2022/11/02 05:50:28;;;;;;;;;;;;;;;12.14;100.00;100498.34;5003028;28;20404;-75
2022/11/02 05:52:53;;;;;;;;;;;;;;;12.11;100.00;100498.59;5006581;28;19944;-76
2022/11/02 05:55:19;;;;;;;;;;;;;;;12.08;100.00;100494.41;5010081;28;20370;-75
2022/11/02 05:57:54;;;;;;;;;;;;;;;12.09;100.00;100504.03;5006112;28;19987;-75
2022/11/02 06:00:20;;;;;;;;;;;;;;;12.11;100.00;100503.91;5007203;28;20431;-75
2022/11/02 06:02:46;;;;;;;;;;;;;;;12.11;100.00;100498.59;5004054;28;20282;-77
2022/11/02 06:05:11;;;;;;;;;;;;;;;12.10;100.00;100499.56;5007331;28;19936;-78
2022/11/02 06:07:37;;;;;;;;;;;;;;;12.07;100.00;100502.50;5001932;28;20288;-77
2022/11/02 06:10:02;;;;;;;;;;;;;;;12.05;100.00;100504.41;5004813;28;20375;-78
2022/11/02 06:12:28;;;;;;;;;;;;;;;12.00;100.00;100501.31;5007078;28;19924;-77
2022/11/02 06:14:53;;;;;;;;;;;;;;;12.00;100.00;100502.16;5004311;28;19925;-76
2022/11/02 06:17:18;;;;;;;;;;;;;;;12.01;100.00;100503.00;5010212;28;19917;-77
2022/11/02 06:19:44;;;;;;;;;;;;;;;12.01;100.00;100498.56;5007454;28;19924;-76
2022/11/02 06:22:09;;;;;;;;;;;;;;;12.03;100.00;100493.09;5003818;28;19921;-77
2022/11/02 06:24:34;;;;;;;;;;;;;;;12.05;100.00;100499.13;5004168;28;19933;-75
2022/11/02 06:27:00;;;;;;;;;;;;;;;12.06;100.00;100495.50;5003833;28;19944;-73
2022/11/02 06:29:25;;;;;;;;;;;;;;;12.08;100.00;100501.50;5009660;28;19917;-73
2022/11/02 06:31:51;;;;;;;;;;;;;;;12.09;100.00;100501.38;5009993;28;19929;-72
2022/11/02 06:34:16;;;;;;;;;;;;;;;12.09;100.00;100503.19;5016254;28;19949;-72
2022/11/02 06:36:41;;;;;;;;;;;;;;;12.02;100.00;100504.66;5014050;28;19917;-73
2022/11/02 06:39:07;;;;;;;;;;;;;;;12.07;100.00;100502.50;5014687;28;20016;-72
2022/11/02 06:41:32;;;;;;;;;;;;;;;12.10;100.00;100512.78;5014181;28;20368;-73
2022/11/02 06:43:57;;;;;;;;;;;;;;;12.14;100.00;100511.56;5015420;28;20012;-73
2022/11/02 06:46:23;;;;;;;;;;;;;;;12.15;100.00;100513.25;5013480;28;19971;-74
2022/11/02 06:48:48;;;;;;;;;;;;;;;12.09;100.00;100511.13;5015179;28;20656;-74
2022/11/02 06:51:14;;;;;;;;;;;;;;;12.07;100.00;100515.72;5008971;28;19940;-73
2022/11/02 06:53:40;;;;;;;;;;;;;;;12.14;100.00;100514.22;5007669;28;20374;-72
2022/11/02 06:56:05;;;;;;;;;;;;;;;12.09;100.00;100516.41;5010869;28;19917;-73
2022/11/02 06:58:31;;;;;;;;;;;;;;;12.03;100.00;100527.50;5008576;28;19921;-75
2022/11/02 07:00:59;;;;;;;;;;;;;;;12.04;100.00;100529.19;5011702;28;19925;-75
2022/11/02 07:03:25;;;;;;;;;;;;;;;11.98;100.00;100529.69;5004803;28;19921;-75
2022/11/02 07:05:51;;;;;;;;;;;;;;;11.95;100.00;100530.81;5006590;28;19964;-74
2022/11/02 07:08:17;;;;;;;;;;;;;;;11.97;100.00;100543.88;5008903;28;20440;-73
2022/11/02 07:10:42;;;;;;;;;;;;;;;11.95;100.00;100551.97;5008985;28;20279;-73
2022/11/02 07:13:08;;;;;;;;;;;;;;;12.03;100.00;100552.16;5005054;28;19944;-74
2022/11/02 07:15:33;;;;;;;;;;;;;;;12.12;100.00;100539.97;5008570;28;20374;-74
2022/11/02 07:17:58;;;;;;;;;;;;;;;12.12;100.00;100537.34;5006039;28;19983;-74
2022/11/02 07:20:24;;;;;;;;;;;;;;;12.11;100.00;100546.22;5009469;28;19980;-74
2022/11/02 07:22:55;;;;;;;;;;;;;;;12.10;100.00;100549.84;5006220;28;19980;-74
2022/11/02 07:25:21;;;;;;;;;;;;;;;12.15;100.00;100547.63;5005731;28;19948;-75
2022/11/02 07:27:46;;;;;;;;;;;;;;;12.22;100.00;100554.09;5009879;28;19960;-74
2022/11/02 07:30:12;;;;;;;;;;;;;;;12.14;100.00;100557.38;5005500;28;19921;-73
2022/11/02 07:32:41;;;;;;;;;;;;;;;12.13;100.00;100561.03;5008421;28;19924;-73
2022/11/02 07:35:07;;;;;;;;;;;;;;;12.17;100.00;100562.44;5005004;28;19918;-74
2022/11/02 07:37:33;;;;;;;;;;;;;;;12.21;100.00;100557.72;5008827;28;19927;-74
2022/11/02 07:39:58;;;;;;;;;;;;;;;12.20;100.00;100563.97;5024408;28;20000;-73
2022/11/02 07:42:23;;;;;;;;;;;;;;;12.07;100.00;100566.81;5005020;28;20016;-74
2022/11/02 07:44:49;;;;;;;;;;;;;;;12.16;100.00;100559.91;5007697;28;19982;-75
2022/11/02 07:47:14;;;;;;;;;;;;;;;12.24;100.00;100560.97;5017226;28;20420;-73
2022/11/02 07:49:40;;;;;;;;;;;;;;;12.26;100.00;100571.38;5004368;28;19921;-75
2022/11/02 07:52:05;;;;;;;;;;;;;;;12.30;100.00;100567.53;5003449;28;19917;-74
2022/11/02 07:54:30;;;;;;;;;;;;;;;12.39;100.00;100561.47;5002677;28;20298;-74
2022/11/02 07:56:56;;;;;;;;;;;;;;;12.48;100.00;100563.34;5004388;28;20397;-73
2022/11/02 07:59:21;;;;;;;;;;;;;;;12.54;100.00;100564.63;5001334;28;20362;-73
2022/11/02 08:01:46;;;;;;;;;;;;;;;12.58;100.00;100561.56;5001789;28;19918;-74
2022/11/02 08:04:12;;;;;;;;;;;;;;;12.66;100.00;100567.03;5003128;28;19967;-74
2022/11/02 08:06:37;;;;;;;;;;;;;;;12.66;100.00;100564.38;5002137;28;19932;-73
2022/11/02 08:09:02;;;;;;;;;;;;;;;12.76;100.00;100558.31;5008811;28;19921;-74
2022/11/02 08:11:28;;;;;;;;;;;;;;;12.75;100.00;100573.38;5003142;28;20411;-71
2022/11/02 08:13:53;;;;;;;;;;;;;;;12.77;100.00;100566.13;5006599;28;19932;-72
2022/11/02 08:16:18;;;;;;;;;;;;;;;12.69;100.00;100568.59;5004761;28;19917;-74
2022/11/02 08:18:44;;;;;;;;;;;;;;;12.72;100.00;100569.16;5005151;28;19924;-72
2022/11/02 08:21:09;;;;;;;;;;;;;;;12.63;100.00;100569.97;5006777;28;19972;-73
2022/11/02 08:23:34;;;;;;;;;;;;;;;12.62;100.00;100568.28;5002955;28;20747;-73
2022/11/02 08:26:00;;;;;;;;;;;;;;;12.55;100.00;100569.75;5010380;28;19936;-75
2022/11/02 08:28:27;;;;;;;;;;;;;;;12.61;100.00;100577.19;5002995;28;19978;-74
2022/11/02 08:30:52;;;;;;;;;;;;;;;12.70;100.00;100571.13;5005837;28;19917;-75
2022/11/02 08:33:19;;;;;;;;;;;;;;;12.73;100.00;100565.53;5005581;28;19964;-74
2022/11/02 08:35:45;;;;;;;;;;;;;;;12.60;100.00;100569.41;4997457;28;19922;-73
2022/11/02 08:38:11;;;;;;;;;;;;;;;12.71;100.00;100556.06;5003880;28;19924;-75
2022/11/02 08:40:36;;;;;;;;;;;;;;;12.79;100.00;100565.97;5010050;28;20121;-73
2022/11/02 08:43:03;;;;;;;;;;;;;;;12.86;100.00;100560.03;5001191;28;20271;-74
2022/11/02 08:45:30;;;;;;;;;;;;;;;12.90;100.00;100563.28;5000825;28;19932;-75
2022/11/02 08:47:55;;;;;;;;;;;;;;;12.88;100.00;100557.25;5001233;28;19926;-73
2022/11/02 08:50:23;;;;;;;41.75;26.85;;;;;;;12.98;100.00;100556.31;5010463;28;19948;-74
2022/11/02 08:52:48;;;;;;;41.63;27.88;;;;;;;13.02;100.00;100556.88;5004410;28;20446;-75
2022/11/02 08:55:13;;;;;;;42.63;28.80;;;;;;;13.10;100.00;100552.59;5000743;28;20122;-75
2022/11/02 08:57:50;;;;;;;42.45;28.92;;;;;;;13.07;100.00;100550.22;5002502;28;20042;-75
2022/11/02 09:00:17;;;;;;;38.92;26.55;;;;;;;13.17;100.00;100546.78;5006288;28;20037;-75
2022/11/02 09:02:43;;;;;;;39.47;26.85;;;;;;;13.16;100.00;100551.25;5000347;28;20547;-78
2022/11/02 09:05:10;;;;;;;34.88;26.17;;;;;;;13.22;100.00;100540.09;5006051;28;20040;-73
2022/11/02 09:07:36;;;;;;;39.25;27.92;;;;;;;13.02;100.00;100540.97;5010006;28;20442;-73
2022/11/02 09:10:02;;;;;;;41.13;27.58;;;;;;;12.93;100.00;100552.41;5009712;28;20037;-73
2022/11/02 09:12:27;;;;;;;42.58;28.23;;;;;;;13.05;100.00;100549.53;5000199;28;20045;-72
2022/11/02 09:14:53;;;;;;;39.55;27.70;;;;;;;13.20;100.00;100557.94;5003715;28;20455;-73
2022/11/02 09:17:18;;;;;;;41.00;28.13;;;;;;;13.29;100.00;100557.16;5003442;28;20037;-74
2022/11/02 09:19:44;;;;;;;42.40;29.55;;;;;;;13.33;100.00;100552.41;5007334;28;20034;-74
2022/11/02 09:22:09;;;;;;;44.58;29.10;;;;;;;13.36;100.00;100552.16;5006915;28;20475;-73
2022/11/02 09:24:35;;;;;;;41.88;28.42;;;;;;;13.42;100.00;100552.44;5006753;28;20049;-73
2022/11/02 09:27:01;;;;;;;46.60;29.13;;;;;;;13.32;100.00;100545.41;5006647;28;20026;-73
2022/11/02 09:29:26;;;;;;;40.00;28.45;;;;;;;13.37;100.00;100544.03;5000212;28;20399;-73
2022/11/02 09:31:52;;;;;;;48.45;31.63;;;;;;;13.45;100.00;100544.19;5009754;28;20057;-73
2022/11/02 09:34:17;;;;;;;41.78;29.80;;;;;;;13.53;100.00;100544.38;5009004;28;20068;-73
2022/11/02 09:36:43;;;;;;;36.20;27.48;;;;;;;13.52;100.00;100536.53;5012008;28;20084;-73
2022/11/02 09:39:08;;;;;;;37.17;27.58;;;;;;;13.44;100.00;100539.88;5009517;28;20030;-73
2022/11/02 09:41:46;;;;;;;40.97;29.10;;;;;;;13.45;100.00;100538.91;5008571;28;20444;-73
2022/11/02 09:44:22;;;;;;;37.10;27.65;;;;;;;13.61;100.00;100534.88;5009488;28;20026;-72
2022/11/02 09:46:47;;;;;;;33.55;26.33;;;;;;;13.72;100.00;100542.72;5004182;28;20042;-72
2022/11/02 09:49:20;;;;;;;37.45;26.15;;;;;;;13.72;100.00;100542.72;5009761;28;20171;-72
2022/11/02 09:51:49;;;;;;;31.02;25.00;;;;;;;13.76;100.00;100542.28;5001225;28;20030;-72
2022/11/02 09:54:33;;;;;;;33.38;28.33;;;;;;;13.74;100.00;100538.09;4997998;28;20435;-73
2022/11/02 09:57:05;;;;;;;;;;;;;;;13.77;100.00;100541.31;5010248;28;20052;-72
2022/11/02 09:59:31;;;;;;;;;;;;;;;13.86;100.00;100544.94;5007169;28;19917;-73
2022/11/02 10:02:09;;;;;;;;;;;;;;;13.85;100.00;100548.56;5010766;28;19971;-73
2022/11/02 10:04:37;;;;;;;;;;;;;;;13.97;100.00;100555.41;5009233;28;19987;-72
2022/11/02 10:07:13;;;;;;;;;;;;;;;14.08;100.00;100555.25;5010165;28;19921;-74
2022/11/02 10:09:38;;;;;;;;;;;;;;;14.19;100.00;100546.31;5010745;28;20292;-74
2022/11/02 10:12:14;;;;;;;;;;;;;;;14.30;100.00;100549.66;5008345;28;19933;-72
2022/11/02 10:15:09;;;;;;;;;;;;;;;14.35;100.00;100547.41;5010524;28;19975;-73
2022/11/02 10:17:37;;;;;;;;;;;;;;;14.47;100.00;100540.16;5005586;28;20437;-74
2022/11/02 10:20:06;;;;;;;;;;;;;;;14.52;100.00;100539.72;5011940;28;19928;-72
2022/11/02 10:22:36;;;;;;;;;;;;;;;14.49;100.00;100542.66;5006987;28;20326;-72
2022/11/02 10:25:06;;;;;;;;;;;;;;;14.49;100.00;100542.66;5005870;28;19947;-73
2022/11/02 10:27:35;;;;;;;;;;;;;;;14.54;100.00;100541.25;5010484;28;19918;-73
2022/11/02 10:30:03;;;;;;;;;;;;;;;14.58;100.00;100536.47;5010873;28;19921;-73
2022/11/02 10:32:33;;;;;;;;;;;;;;;14.58;100.00;100539.97;5009409;28;19924;-73
2022/11/02 10:35:00;;;;;;;;;;;;;;;14.58;100.00;100541.78;5010752;28;19914;-73
2022/11/02 10:37:42;;;;;;;;;;;;;;;14.59;100.00;100540.81;5007568;28;20016;-73
2022/11/02 10:40:14;;;;;;;;;;;;;;;14.59;100.00;100530.19;5003643;28;20289;-73
2022/11/02 10:42:58;;;;;;;;;;;;;;;14.63;100.00;100534.22;5004053;28;19921;-74
2022/11/02 10:45:26;;;;;;;;;;;;;;;14.67;100.00;100532.94;5003366;28;20405;-72
2022/11/02 10:48:00;;;;;;;;;;;;;;;14.68;100.00;100531.97;5002687;28;19972;-73
2022/11/02 10:50:44;;;;;;;;;;;;;;;14.67;100.00;100536.44;5004963;28;19923;-72
2022/11/02 10:53:14;;;;;;;;;;;;;;;14.68;100.00;100542.59;5001517;28;19924;-73
2022/11/02 10:55:49;;;;;;;;;;;;;;;14.69;100.00;100533.63;5004247;28;19921;-74
2022/11/02 10:58:17;;;;;;;;;;;;;;;14.70;100.00;100535.31;5008228;28;19925;-73
2022/11/02 11:00:43;;;;;;;;;;;;;;;14.71;100.00;100537.00;5006373;28;19972;-72
2022/11/02 11:03:13;;;;;;;;;;;;;;;14.73;100.00;100535.84;5004797;28;19973;-72
2022/11/02 11:05:41;;;;;;;;;;;;;;;14.75;100.00;100538.38;5003786;28;20326;-73
2022/11/02 11:08:25;;;;;;;;;;;;;;;14.75;100.00;100533.06;5010311;28;20308;-72
2022/11/02 11:10:50;;;;;;;;;;;;;;;14.75;100.00;100533.06;5013852;28;19924;-73
2022/11/02 11:13:22;;;;;;;29.20;22.42;;;;;;;14.75;100.00;100522.44;5013140;28;19917;-72
2022/11/02 11:15:51;;;;;;;31.45;23.48;;;;;;;14.77;100.00;100520.47;5013874;28;20038;-71
2022/11/02 11:18:20;;;;;;;31.48;23.33;;;;;;;14.80;100.00;100522.81;5014483;28;20401;-72
2022/11/02 11:20:47;;;;;;;34.33;22.90;;;;;;;14.84;100.00;100513.59;5013423;28;20033;-73
2022/11/02 11:23:17;;;;;;;29.70;21.98;;;;;;;14.89;100.00;100514.00;5010112;28;20549;-73
2022/11/02 11:25:53;;;;;;;28.67;22.23;;;;;;;14.97;100.00;100515.88;5008189;28;20034;-72
2022/11/02 11:28:21;;;;;;;28.98;22.65;;;;;;;15.01;100.00;100506.66;5013120;28;20034;-72
2022/11/02 11:31:00;;;;;;;30.50;23.92;;;;;;;15.01;100.00;100504.84;5013451;28;20040;-75
2022/11/02 11:33:25;;;;;;;31.85;23.30;;;;;;;15.05;100.00;100506.19;5005853;28;21760;-72
2022/11/02 11:35:51;;;;;;;33.08;25.45;;;;;;;15.20;100.00;100505.72;5008342;28;20404;-74
2022/11/02 11:38:26;;;;;;;29.73;23.25;;;;;;;15.23;100.00;100484.13;5008112;28;20029;-72
2022/11/02 11:40:54;;;;;;;29.17;22.20;;;;;;;15.33;100.00;100485.72;5011319;28;20042;-72
2022/11/02 11:43:28;;;;;;;28.50;21.65;;;;;;;15.41;100.00;100482.31;5001760;28;20034;-73
2022/11/02 11:45:59;;;;;;;29.60;23.30;;;;;;;15.37;100.00;100480.97;5004303;28;20061;-73
2022/11/02 11:48:47;;;;;;;29.35;21.38;;;;;;;15.42;100.00;100473.38;5004795;28;20045;-73
2022/11/02 11:51:26;;;;;;;31.13;22.80;;;;;;;15.50;100.00;100476.91;5006858;28;20033;-73
2022/11/02 11:54:16;;;;;;;28.25;21.58;;;;;;;15.59;100.00;100464.56;5002855;28;20038;-73
2022/11/02 11:56:42;;;;;;;29.13;20.15;;;;;;;15.67;100.00;100461.97;5005822;28;20136;-74
2022/11/02 11:59:44;;;;;;;26.50;19.70;;;;;;;15.71;100.00;100463.34;5004588;28;20030;-73
2022/11/02 12:02:25;;;;;;;27.13;20.85;;;;;;;15.73;100.00;100456.03;5006794;28;20034;-73
2022/11/02 12:04:57;;;;;;;27.35;20.67;;;;;;;15.61;100.00;100454.59;5020503;28;20026;-73
2022/11/02 12:07:41;;;;;;;23.52;19.85;;;;;;;15.69;100.00;100448.53;5005257;28;20039;-74
2022/11/02 12:10:21;;;;;;;30.27;21.45;;;;;;;15.82;100.00;100443.66;5009248;28;20494;-73
2022/11/02 12:13:02;;;;;;;;;;;;;;;15.89;100.00;100440.22;5005639;28;20045;-73
2022/11/02 12:16:02;;;;;;;28.15;19.63;;;;;;;16.01;100.00;100442.63;5005091;28;19913;-74
2022/11/02 12:18:46;;;;;;;;;;;;;;;16.13;100.00;100442.22;4979403;28;20054;-74
2022/11/02 12:21:32;;;;;;;24.50;17.80;;;;;;;16.27;100.00;100438.13;4985248;28;19929;-73
2022/11/02 12:24:06;;;;;;;24.95;19.67;;;;;;;16.19;100.00;100425.59;4979845;28;20157;-76
2022/11/02 12:26:48;;;;;;;29.98;21.55;;;;;;;16.22;100.00;100424.44;4982279;28;20109;-75